createdAt,value
2018-12-10T00:00:48.432Z,1.30
2018-12-10T00:03:28.661Z,1.00
2018-12-10T00:06:03.691Z,1.20
2018-12-10T00:08:39.606Z,1.00
2018-12-10T00:11:15.335Z,0.97
2018-12-10T00:13:54.897Z,1.00
2018-12-10T00:16:29.760Z,1.03
2018-12-10T00:19:04.678Z,1.47
2018-12-10T00:21:39.515Z,1.43
2018-12-10T00:24:14.535Z,1.23
2018-12-10T00:26:49.409Z,1.30
2018-12-10T00:29:24.888Z,0.97
2018-12-10T00:32:00.227Z,1.00
2018-12-10T00:34:41.615Z,1.03
2018-12-10T00:37:16.888Z,1.10
2018-12-10T00:39:49.429Z,1.40
2018-12-10T00:42:19.999Z,1.10
2018-12-10T00:44:52.198Z,1.63
2018-12-10T00:47:23.890Z,1.20
2018-12-10T00:49:54.960Z,1.10
2018-12-10T00:52:25.855Z,1.20
2018-12-10T00:54:56.695Z,0.80
2018-12-10T00:57:26.941Z,0.97
2018-12-10T00:59:58.519Z,1.07
2018-12-10T01:02:28.736Z,0.90
2018-12-10T01:04:58.335Z,0.80
2018-12-10T01:07:29.791Z,1.00
2018-12-10T01:09:59.804Z,0.80
2018-12-10T01:12:36.938Z,0.70
2018-12-10T01:15:07.487Z,0.90
2018-12-10T01:17:37.140Z,0.80
2018-12-10T01:20:08.179Z,1.20
2018-12-10T01:22:38.083Z,1.33
2018-12-10T01:25:16.641Z,0.90
2018-12-10T01:27:46.240Z,0.83
2018-12-10T01:30:19.458Z,0.87
2018-12-10T01:32:50.016Z,1.10
2018-12-10T01:35:21.323Z,1.10
2018-12-10T01:37:51.990Z,1.07
2018-12-10T01:40:22.592Z,0.90
2018-12-10T01:42:53.954Z,1.20
2018-12-10T01:45:24.172Z,1.07
2018-12-10T01:47:54.753Z,0.80
2018-12-10T01:50:25.672Z,1.13
2018-12-10T01:52:56.417Z,0.80
2018-12-10T01:55:27.327Z,0.80
2018-12-10T01:57:58.231Z,0.90
2018-12-10T02:00:28.960Z,1.03
2018-12-10T02:02:59.439Z,1.00
2018-12-10T02:05:30.105Z,1.10
2018-12-10T02:08:00.597Z,0.87
2018-12-10T02:10:30.386Z,1.00
2018-12-10T02:13:05.762Z,0.80
2018-12-10T02:15:35.755Z,1.00
2018-12-10T02:18:05.602Z,1.10
2018-12-10T02:20:36.496Z,0.90
2018-12-10T02:23:07.873Z,1.27
2018-12-10T02:25:37.446Z,1.50
2018-12-10T02:28:08.664Z,1.10
2018-12-10T02:30:42.918Z,1.17
2018-12-10T02:33:12.494Z,0.90
2018-12-10T02:35:43.433Z,1.13
2018-12-10T02:38:17.750Z,1.30
2018-12-10T02:40:49.861Z,1.17
2018-12-10T02:43:21.626Z,1.00
2018-12-10T02:45:52.746Z,1.20
2018-12-10T02:48:22.761Z,1.10
2018-12-10T02:50:53.932Z,1.20
2018-12-10T02:53:25.444Z,1.10
2018-12-10T02:55:59.094Z,1.20
2018-12-10T02:58:28.683Z,1.53
2018-12-10T03:01:01.086Z,1.10
2018-12-10T03:03:30.707Z,1.50
2018-12-10T03:06:01.643Z,1.10
2018-12-10T03:08:32.473Z,1.30
2018-12-10T03:11:02.738Z,0.80
2018-12-10T03:13:32.769Z,1.40
2018-12-10T03:16:04.613Z,1.10
2018-12-10T03:18:34.343Z,0.90
2018-12-10T03:21:04.893Z,0.90
2018-12-10T03:23:35.451Z,0.80
2018-12-10T03:26:06.002Z,1.20
2018-12-10T03:28:36.889Z,1.20
2018-12-10T03:31:07.331Z,1.10
2018-12-10T03:33:37.829Z,1.50
2018-12-10T03:36:08.662Z,1.40
2018-12-10T03:38:39.339Z,1.40
2018-12-10T03:41:10.937Z,1.40
2018-12-10T03:43:40.647Z,1.00
2018-12-10T03:46:12.701Z,1.20
2018-12-10T03:48:42.613Z,1.20
2018-12-10T03:51:12.987Z,1.20
2018-12-10T03:53:43.907Z,0.80
2018-12-10T03:56:14.063Z,1.00
2018-12-10T03:58:43.983Z,1.00
2018-12-10T04:01:15.775Z,0.97
2018-12-10T04:03:48.217Z,0.93
2018-12-10T04:06:21.129Z,1.20
2018-12-10T04:08:50.930Z,0.67
2018-12-10T04:11:22.146Z,0.90
2018-12-10T04:13:53.167Z,1.27
2018-12-10T04:16:25.864Z,0.70
2018-12-10T04:18:57.107Z,1.37
2018-12-10T04:21:27.025Z,0.70
2018-12-10T04:23:57.951Z,1.20
2018-12-10T04:26:27.890Z,1.10
2018-12-10T04:29:00.220Z,0.90
2018-12-10T04:31:30.077Z,1.10
2018-12-10T04:34:01.592Z,0.73
2018-12-10T04:36:33.888Z,0.93
2018-12-10T04:39:08.993Z,0.90
2018-12-10T04:41:41.444Z,0.80
2018-12-10T04:44:12.353Z,0.90
2018-12-10T04:46:42.603Z,0.90
2018-12-10T04:49:13.344Z,0.87
2018-12-10T04:51:43.871Z,1.00
2018-12-10T04:54:14.264Z,1.03
2018-12-10T04:56:44.108Z,0.70
2018-12-10T04:59:15.711Z,1.20
2018-12-10T05:01:50.637Z,0.93
2018-12-10T05:04:20.221Z,1.10
2018-12-10T05:06:51.460Z,1.00
2018-12-10T05:09:21.288Z,0.80
2018-12-10T05:11:52.278Z,1.00
2018-12-10T05:14:23.950Z,1.07
2018-12-10T05:16:54.844Z,1.10
2018-12-10T05:19:24.863Z,1.10
2018-12-10T05:21:55.800Z,1.13
2018-12-10T05:24:27.319Z,1.20
2018-12-10T05:27:01.261Z,0.90
2018-12-10T05:29:33.327Z,0.90
2018-12-10T05:32:04.307Z,1.10
2018-12-10T05:34:37.424Z,0.97
2018-12-10T05:37:09.503Z,1.00
2018-12-10T05:39:41.363Z,0.80
2018-12-10T05:42:11.917Z,1.10
2018-12-10T05:44:43.389Z,1.00
2018-12-10T05:47:19.861Z,1.13
2018-12-10T05:49:52.522Z,0.70
2018-12-10T05:52:23.418Z,0.93
2018-12-10T05:54:54.404Z,1.20
2018-12-10T05:57:25.383Z,1.57
2018-12-10T05:59:55.901Z,1.10
2018-12-10T06:02:28.585Z,1.17
2018-12-10T06:05:01.011Z,0.93
2018-12-10T06:07:30.615Z,1.00
2018-12-10T06:10:01.570Z,0.77
2018-12-10T06:12:34.075Z,0.93
2018-12-10T06:15:07.283Z,0.93
2018-12-10T06:17:36.794Z,0.90
2018-12-10T06:20:08.242Z,0.70
2018-12-10T06:22:37.844Z,0.80
2018-12-10T06:25:08.691Z,1.00
2018-12-10T06:27:38.221Z,0.77
2018-12-10T06:30:10.856Z,1.00
2018-12-10T06:32:41.285Z,1.07
2018-12-10T06:35:16.834Z,0.97
2018-12-10T06:37:47.313Z,0.83
2018-12-10T06:40:19.533Z,0.83
2018-12-10T06:42:50.478Z,0.80
2018-12-10T06:45:22.566Z,1.27
2018-12-10T06:47:58.358Z,1.07
2018-12-10T06:50:30.370Z,1.13
2018-12-10T06:53:01.062Z,1.00
2018-12-10T06:55:32.740Z,0.73
2018-12-10T06:58:05.726Z,0.80
2018-12-10T07:00:36.686Z,1.30
2018-12-10T07:03:08.407Z,1.60
2018-12-10T07:05:38.645Z,1.47
2018-12-10T07:08:12.262Z,1.00
2018-12-10T07:10:44.859Z,1.93
2018-12-10T07:13:16.146Z,1.20
2018-12-10T07:15:48.213Z,0.90
2018-12-10T07:18:19.928Z,0.90
2018-12-10T07:20:52.755Z,1.30
2018-12-10T07:23:24.397Z,1.17
2018-12-10T07:25:56.123Z,0.93
2018-12-10T07:28:27.145Z,1.40
2018-12-10T07:30:58.067Z,1.20
2018-12-10T07:33:28.431Z,1.40
2018-12-10T07:35:58.939Z,1.10
2018-12-10T07:38:29.864Z,1.03
2018-12-10T07:40:59.825Z,0.97
2018-12-10T07:43:30.127Z,1.23
2018-12-10T07:46:01.247Z,1.60
2018-12-10T07:48:31.908Z,1.10
2018-12-10T07:51:01.968Z,1.27
2018-12-10T07:53:34.293Z,1.30
2018-12-10T07:56:04.568Z,0.90
2018-12-10T07:58:34.400Z,1.10
2018-12-10T08:01:05.341Z,1.00
2018-12-10T08:03:35.866Z,1.10
2018-12-10T08:06:06.289Z,1.10
2018-12-10T08:08:37.065Z,1.00
2018-12-10T08:11:07.866Z,1.40
2018-12-10T08:13:37.684Z,1.40
2018-12-10T08:16:09.421Z,1.50
2018-12-10T08:18:40.385Z,1.03
2018-12-10T08:21:15.983Z,1.30
2018-12-10T08:23:48.126Z,1.60
2018-12-10T08:26:20.381Z,1.10
2018-12-10T08:31:27.110Z,1.10
2018-12-10T08:31:27.948Z,1.20
2018-12-10T08:33:57.693Z,1.47
2018-12-10T08:36:31.188Z,1.50
2018-12-10T08:39:01.233Z,0.70
2018-12-10T08:41:32.843Z,1.10
2018-12-10T08:44:02.943Z,1.20
2018-12-10T08:46:33.283Z,1.40
2018-12-10T08:49:04.751Z,1.40
2018-12-10T08:51:35.252Z,1.60
2018-12-10T08:54:05.162Z,1.90
2018-12-10T08:56:36.912Z,1.73
2018-12-10T08:59:07.083Z,1.73
2018-12-10T09:01:37.435Z,1.50
2018-12-10T09:04:08.175Z,1.20
2018-12-10T09:06:37.869Z,1.53
2018-12-10T09:09:10.012Z,1.60
2018-12-10T09:11:40.503Z,2.37
2018-12-10T09:14:15.588Z,1.73
2018-12-10T09:16:55.267Z,1.97
2018-12-10T09:19:25.712Z,2.27
2018-12-10T09:21:55.583Z,2.30
2018-12-10T09:24:26.805Z,1.57
2018-12-10T09:26:58.153Z,2.37
2018-12-10T09:29:31.153Z,2.77
2018-12-10T09:32:02.594Z,2.17
2018-12-10T09:34:32.963Z,2.23
2018-12-10T09:37:03.473Z,2.20
2018-12-10T09:39:34.923Z,2.73
2018-12-10T09:42:04.687Z,2.33
2018-12-10T09:44:34.985Z,2.10
2018-12-10T09:47:06.777Z,1.87
2018-12-10T09:49:37.376Z,2.30
2018-12-10T09:52:06.938Z,2.60
2018-12-10T09:54:37.535Z,1.60
2018-12-10T09:57:08.883Z,1.67
2018-12-10T09:59:38.449Z,1.30
2018-12-10T10:02:12.399Z,1.60
2018-12-10T10:04:43.418Z,1.67
2018-12-10T10:07:15.037Z,1.70
2018-12-10T10:09:45.661Z,1.20
2018-12-10T10:12:16.027Z,1.17
2018-12-10T10:14:47.064Z,1.13
2018-12-10T10:17:17.727Z,9.73
2018-12-10T10:19:48.399Z,1.87
2018-12-10T10:22:19.272Z,1.50
2018-12-10T10:24:50.754Z,2.27
2018-12-10T10:27:21.030Z,1.80
2018-12-10T10:29:51.006Z,1.40
2018-12-10T10:32:21.977Z,1.43
2018-12-10T10:34:53.471Z,1.60
2018-12-10T10:37:24.322Z,1.40
2018-12-10T10:39:57.699Z,1.50
2018-12-10T10:42:27.680Z,1.37
2018-12-10T10:45:02.159Z,1.23
2018-12-10T10:47:32.866Z,1.57
2018-12-10T10:50:02.945Z,1.80
2018-12-10T10:52:33.433Z,1.80
2018-12-10T10:55:04.548Z,1.60
2018-12-10T10:57:36.902Z,1.13
2018-12-10T11:00:15.283Z,1.83
2018-12-10T11:02:49.082Z,1.10
2018-12-10T11:05:21.917Z,1.70
2018-12-10T11:07:52.964Z,1.90
2018-12-10T11:10:23.155Z,1.20
2018-12-10T11:12:52.990Z,1.20
2018-12-10T11:15:24.719Z,1.50
2018-12-10T11:17:54.895Z,1.40
2018-12-10T11:20:25.962Z,1.70
2018-12-10T11:22:58.856Z,1.80
2018-12-10T11:25:30.345Z,1.73
2018-12-10T11:28:00.814Z,1.80
2018-12-10T11:30:32.233Z,1.43
2018-12-10T11:33:03.018Z,1.57
2018-12-10T11:35:33.419Z,1.77
2018-12-10T11:38:04.463Z,1.50
2018-12-10T11:40:35.096Z,1.33
2018-12-10T11:43:05.048Z,1.37
2018-12-10T11:45:36.164Z,1.60
2018-12-10T11:48:08.842Z,1.97
2018-12-10T11:50:43.323Z,1.70
2018-12-10T11:53:21.030Z,1.60
2018-12-10T11:55:53.935Z,1.30
2018-12-10T11:58:24.259Z,1.57
2018-12-10T12:00:54.457Z,1.90
2018-12-10T12:03:25.738Z,1.70
2018-12-10T12:05:55.260Z,2.07
2018-12-10T12:08:27.056Z,1.90
2018-12-10T12:10:57.032Z,2.33
2018-12-10T12:13:27.330Z,1.80
2018-12-10T12:15:58.171Z,1.73
2018-12-10T12:18:29.263Z,2.27
2018-12-10T12:20:59.448Z,3.67
2018-12-10T12:23:30.540Z,2.53
2018-12-10T12:26:00.147Z,1.93
2018-12-10T12:28:32.137Z,1.77
2018-12-10T12:31:02.401Z,1.60
2018-12-10T12:33:34.723Z,2.70
2018-12-10T12:36:04.629Z,2.57
2018-12-10T12:38:36.724Z,3.83
2018-12-10T12:41:08.412Z,2.90
2018-12-10T12:43:38.224Z,1.43
2018-12-10T12:46:10.227Z,1.60
2018-12-10T12:48:41.204Z,1.90
2018-12-10T12:51:12.581Z,1.80
2018-12-10T12:53:47.502Z,1.60
2018-12-10T12:56:20.476Z,1.50
2018-12-10T12:58:52.850Z,1.70
2018-12-10T13:01:26.448Z,2.00
2018-12-10T13:03:56.614Z,3.20
2018-12-10T13:06:26.568Z,2.70
2018-12-10T13:08:57.995Z,1.80
2018-12-10T13:11:40.782Z,1.80
2018-12-10T13:14:13.291Z,1.97
2018-12-10T13:16:49.434Z,2.40
2018-12-10T13:19:18.579Z,1.63
2018-12-10T13:21:49.035Z,1.70
2018-12-10T13:24:19.613Z,1.47
2018-12-10T13:26:50.653Z,1.60
2018-12-10T13:29:21.772Z,2.07
2018-12-10T13:31:52.183Z,2.10
2018-12-10T13:34:22.690Z,2.10
2018-12-10T13:36:53.753Z,2.17
2018-12-10T13:39:24.633Z,2.37
2018-12-10T13:41:55.332Z,1.53
2018-12-10T13:44:30.940Z,2.30
2018-12-10T13:47:02.844Z,1.90
2018-12-10T13:49:34.656Z,1.83
2018-12-10T13:52:09.104Z,2.10
2018-12-10T13:54:38.050Z,2.33
2018-12-10T13:57:08.621Z,2.20
2018-12-10T13:59:38.490Z,2.07
2018-12-10T14:02:11.288Z,2.30
2018-12-10T14:04:48.675Z,1.93
2018-12-10T14:07:19.767Z,2.00
2018-12-10T14:09:51.147Z,1.70
2018-12-10T14:12:20.995Z,2.07
2018-12-10T14:14:52.957Z,2.00
2018-12-10T14:17:23.995Z,1.80
2018-12-10T14:19:55.656Z,1.80
2018-12-10T14:22:27.955Z,1.50
2018-12-10T14:24:58.982Z,1.43
2018-12-10T14:27:29.023Z,1.57
2018-12-10T14:29:59.649Z,1.63
2018-12-10T14:32:29.971Z,1.80
2018-12-10T14:34:59.748Z,1.53
2018-12-10T14:37:30.807Z,2.03
2018-12-10T14:40:01.834Z,2.27
2018-12-10T14:42:33.074Z,2.03
2018-12-10T14:45:04.441Z,2.30
2018-12-10T14:47:34.026Z,2.90
2018-12-10T14:50:05.037Z,2.33
2018-12-10T14:52:36.035Z,2.43
2018-12-10T14:55:07.665Z,2.10
2018-12-10T14:57:39.169Z,3.10
2018-12-10T15:00:12.174Z,2.13
2018-12-10T15:02:42.141Z,2.40
2018-12-10T15:05:17.269Z,2.10
2018-12-10T15:07:47.916Z,2.50
2018-12-10T15:10:23.239Z,2.43
2018-12-10T15:12:52.950Z,2.37
2018-12-10T15:15:31.663Z,2.40
2018-12-10T15:18:04.186Z,3.20
2018-12-10T15:20:33.991Z,2.47
2018-12-10T15:23:04.016Z,2.37
2018-12-10T15:25:35.008Z,2.17
2018-12-10T15:28:05.962Z,2.30
2018-12-10T15:30:36.927Z,1.73
2018-12-10T15:33:14.385Z,2.10
2018-12-10T15:35:44.478Z,2.13
2018-12-10T15:38:16.446Z,2.80
2018-12-10T15:40:46.145Z,2.80
2018-12-10T15:43:16.396Z,1.83
2018-12-10T15:45:47.911Z,1.70
2018-12-10T15:48:20.131Z,1.90
2018-12-10T15:50:51.535Z,3.10
2018-12-10T15:53:22.336Z,2.70
2018-12-10T15:55:53.368Z,2.03
2018-12-10T15:58:26.931Z,1.93
2018-12-10T16:00:58.104Z,1.93
2018-12-10T16:03:28.483Z,1.93
2018-12-10T16:05:59.361Z,2.60
2018-12-10T16:08:29.311Z,2.03
2018-12-10T16:11:00.280Z,1.83
2018-12-10T16:13:31.320Z,2.30
2018-12-10T16:16:01.230Z,2.03
2018-12-10T16:18:33.590Z,2.30
2018-12-10T16:21:06.557Z,2.00
2018-12-10T16:23:36.633Z,1.50
2018-12-10T16:26:07.461Z,2.17
2018-12-10T16:28:41.662Z,1.80
2018-12-10T16:31:16.016Z,1.90
2018-12-10T16:33:49.197Z,2.33
2018-12-10T16:36:19.738Z,1.90
2018-12-10T16:38:51.226Z,2.87
2018-12-10T16:41:23.313Z,2.50
2018-12-10T16:43:58.854Z,2.70
2018-12-10T16:46:31.009Z,3.40
2018-12-10T16:49:01.535Z,2.77
2018-12-10T16:51:32.383Z,3.00
2018-12-10T16:54:03.368Z,3.53
2018-12-10T16:56:34.422Z,3.53
2018-12-10T16:59:05.847Z,3.03
2018-12-10T17:01:35.577Z,2.83
2018-12-10T17:04:06.529Z,2.73
2018-12-10T17:06:36.964Z,2.93
2018-12-10T17:09:14.723Z,4.77
2018-12-10T17:11:46.307Z,6.27
2018-12-10T17:14:17.832Z,4.17
2018-12-10T17:16:48.739Z,3.10
2018-12-10T17:19:18.568Z,3.40
2018-12-10T17:21:49.439Z,4.30
2018-12-10T17:24:20.769Z,3.50
2018-12-10T17:26:50.678Z,5.50
2018-12-10T17:29:21.825Z,2.60
2018-12-10T17:31:55.892Z,3.70
2018-12-10T17:34:25.768Z,3.47
2018-12-10T17:36:56.508Z,3.03
2018-12-10T17:39:26.601Z,3.90
2018-12-10T17:41:57.683Z,3.83
2018-12-10T17:44:29.675Z,3.13
2018-12-10T17:47:00.014Z,5.33
2018-12-10T17:49:30.052Z,3.83
2018-12-10T17:52:02.867Z,3.33
2018-12-10T17:54:39.518Z,3.70
2018-12-10T17:57:17.151Z,3.90
2018-12-10T17:59:47.830Z,4.70
2018-12-10T18:02:18.990Z,4.70
2018-12-10T18:04:50.918Z,8.33
2018-12-10T18:07:21.368Z,7.87
2018-12-10T18:09:53.957Z,6.30
2018-12-10T18:12:27.630Z,4.67
2018-12-10T18:14:59.575Z,4.60
2018-12-10T18:17:32.987Z,5.07
2018-12-10T18:20:02.875Z,4.13
2018-12-10T18:22:32.954Z,4.00
2018-12-10T18:25:07.806Z,4.40
2018-12-10T18:27:38.476Z,4.90
2018-12-10T18:30:13.362Z,5.00
2018-12-10T18:32:44.991Z,4.50
2018-12-10T18:35:15.724Z,4.00
2018-12-10T18:37:46.584Z,3.90
2018-12-10T18:40:18.105Z,3.30
2018-12-10T18:42:47.944Z,3.53
2018-12-10T18:45:18.642Z,4.37
2018-12-10T18:47:49.104Z,4.00
2018-12-10T18:50:20.091Z,3.83
2018-12-10T18:52:50.992Z,3.30
2018-12-10T18:55:21.848Z,3.60
2018-12-10T18:57:52.410Z,4.07
2018-12-10T19:00:23.194Z,3.47
2018-12-10T19:02:53.672Z,4.37
2018-12-10T19:05:28.261Z,5.20
2018-12-10T19:08:00.268Z,4.70
2018-12-10T19:10:31.105Z,3.80
2018-12-10T19:13:02.196Z,4.63
2018-12-10T19:15:33.620Z,5.27
2018-12-10T19:18:06.444Z,4.93
2018-12-10T19:20:37.181Z,4.10
2018-12-10T19:23:06.959Z,4.50
2018-12-10T19:25:39.228Z,5.20
2018-12-10T19:28:11.101Z,3.97
2018-12-10T19:30:41.981Z,4.00
2018-12-10T19:33:12.881Z,4.37
2018-12-10T19:35:47.419Z,3.10
2018-12-10T19:38:26.445Z,4.07
2018-12-10T19:40:56.019Z,5.43
2018-12-10T19:43:27.114Z,4.10
2018-12-10T19:45:57.054Z,3.87
2018-12-10T19:48:28.629Z,3.43
2018-12-10T19:50:58.244Z,4.10
2018-12-10T19:53:30.105Z,4.43
2018-12-10T19:56:01.994Z,4.40
2018-12-10T19:58:33.168Z,4.73
2018-12-10T20:01:03.390Z,4.20
2018-12-10T20:03:39.806Z,7.13
2018-12-10T20:06:16.353Z,6.97
2018-12-10T20:08:49.351Z,10.80
2018-12-10T20:11:23.690Z,6.50
2018-12-10T20:13:55.386Z,11.03
2018-12-10T20:16:25.532Z,7.70
2018-12-10T20:19:00.837Z,4.73
2018-12-10T20:21:31.152Z,4.57
2018-12-10T20:24:02.919Z,4.00
2018-12-10T20:26:42.215Z,4.83
2018-12-10T20:29:15.605Z,4.67
2018-12-10T20:31:46.118Z,4.13
2018-12-10T20:34:17.086Z,4.60
2018-12-10T20:36:46.949Z,4.50
2018-12-10T20:39:17.775Z,3.70
2018-12-10T20:41:47.946Z,3.33
2018-12-10T20:44:18.492Z,3.80
2018-12-10T20:46:48.663Z,3.53
2018-12-10T20:49:20.466Z,3.83
2018-12-10T20:51:50.529Z,4.37
2018-12-10T20:54:21.131Z,3.80
2018-12-10T20:56:52.092Z,4.07
2018-12-10T20:59:22.533Z,4.20
2018-12-10T21:01:53.227Z,3.80
2018-12-10T21:04:23.779Z,4.20
2018-12-10T21:06:54.154Z,4.60
2018-12-10T21:09:24.606Z,4.20
2018-12-10T21:11:55.816Z,5.07
2018-12-10T21:14:25.868Z,3.30
2018-12-10T21:16:57.368Z,4.20
2018-12-10T21:19:27.648Z,3.67
2018-12-10T21:21:57.725Z,4.00
2018-12-10T21:24:28.579Z,3.50
2018-12-10T21:26:58.852Z,5.33
2018-12-10T21:29:29.840Z,5.00
2018-12-10T21:32:01.013Z,4.50
2018-12-10T21:34:30.544Z,3.80
2018-12-10T21:37:01.015Z,4.03
2018-12-10T21:39:32.472Z,4.20
2018-12-10T21:42:04.348Z,5.30
2018-12-10T21:44:34.971Z,4.10
2018-12-10T21:47:05.014Z,5.10
2018-12-10T21:49:36.160Z,5.20
2018-12-10T21:52:06.454Z,4.60
2018-12-10T21:54:37.826Z,3.87
2018-12-10T21:57:08.679Z,4.40
2018-12-10T21:59:38.830Z,4.10
2018-12-10T22:02:09.772Z,3.73
2018-12-10T22:04:40.206Z,4.60
2018-12-10T22:07:17.775Z,3.60
2018-12-10T22:09:51.429Z,4.00
2018-12-10T22:12:26.091Z,4.87
2018-12-10T22:14:58.624Z,3.70
2018-12-10T22:17:32.056Z,3.53
2018-12-10T22:20:03.375Z,4.20
2018-12-10T22:22:35.428Z,3.73
2018-12-10T22:25:07.036Z,3.87
2018-12-10T22:27:38.113Z,3.83
2018-12-10T22:30:09.113Z,4.50
2018-12-10T22:32:38.880Z,3.80
2018-12-10T22:35:08.860Z,3.43
2018-12-10T22:37:43.190Z,2.87
2018-12-10T22:40:13.972Z,2.80
2018-12-10T22:42:47.860Z,3.00
2018-12-10T22:45:19.091Z,3.10
2018-12-10T22:47:50.983Z,3.10
2018-12-10T22:50:22.775Z,2.77
2018-12-10T22:52:52.279Z,3.40
2018-12-10T22:55:22.796Z,4.30
2018-12-10T22:57:54.217Z,2.53
2018-12-10T23:00:54.752Z,2.63
2018-12-10T23:03:24.674Z,2.07
2018-12-10T23:05:54.999Z,2.77
2018-12-10T23:08:25.199Z,2.30
2018-12-10T23:10:56.139Z,2.37
2018-12-10T23:13:28.018Z,2.90
2018-12-10T23:16:01.079Z,2.60
2018-12-10T23:18:34.293Z,1.73
2018-12-10T23:21:04.408Z,2.10
2018-12-10T23:23:34.344Z,2.20
2018-12-10T23:26:06.352Z,2.20
2018-12-10T23:28:36.368Z,2.03
2018-12-10T23:31:07.302Z,2.23
2018-12-10T23:33:37.141Z,2.40
2018-12-10T23:36:07.147Z,2.10
2018-12-10T23:38:39.008Z,2.20
2018-12-10T23:41:17.503Z,2.33
2018-12-10T23:43:48.385Z,2.40
2018-12-10T23:46:19.177Z,2.23
2018-12-10T23:48:49.891Z,2.60
2018-12-10T23:51:20.900Z,2.97
2018-12-10T23:53:51.326Z,3.43
2018-12-10T23:56:27.810Z,3.73
2018-12-10T23:58:59.331Z,3.80
